Brooke, VA

3:13 AM EDT on September 20, 2014 (GMT -0400)
Eskimo Hill Rd | Change Station
CLOSE
Current Station
Personal Weather Station
Location: Stafford, VA
Elevation: 218 ft
Nearby Weather Stations

Elev 218 ft 38.38 °N, 77.42 °W | Updated 16 seconds ago

Mostly Cloudy
Mostly Cloudy
62.6 °F
Feels Like 62.6 °F
N
0.0
Wind Variable Wind from NE
Gusts 0.0 mph

Today
High -- | Low -- °F
--% Chance of Precip.
Yesterday
High -- | Low -- °F
Precip. -- in
6:55 AM 7:09 PM
Waning Crescent, 14% visible
Pressure 30.30 in
Visibility 2.5 miles
Clouds Mostly Cloudy 8000 ft
Dew Point 59 °F
Humidity 89%
Rainfall 0.00 in
Snow Depth Not available.
UV 0 out of 12
Pollen 4.50 out of 12
Air Quality Not available.
Flu Activity Not available.
METAR KRMN 200655Z AUTO 00000KT 2 1/2SM BR BKN080 14/14 A3030 RMK AO2 T01420142

More Conditions Fewer Conditions

Pressure 30.30 in
Visibility 2.5 miles
Clouds Mostly Cloudy 8000 ft
Dew Point 59 °F
Humidity 89%
Rainfall 0.00 in
Snow Depth Not available.
UV 0 out of 12
Pollen 4.50 out of 12
Air Quality Not available.
Flu Activity Not available.
METAR KRMN 200655Z AUTO 00000KT 2 1/2SM BR BKN080 14/14 A3030 RMK AO2 T01420142

More Conditions Fewer Conditions

10-Day Weather Forecast

Almanac

Astronomy

Sep. 20, 2014 Rise Set
Actual Time 6:55 AM EDT 7:09 PM EDT
Civil Twilight 6:28 AM EDT 7:36 PM EDT
Nautical Twilight 5:57 AM EDT 8:06 PM EDT
Astronomical Twilight 5:26 AM EDT 8:38 PM EDT
Moon 3:34 AM EDT 5:10 PM EDT
Length of Visible Light 13h 07m
Length of Day
12h 14m
Tomorrow will be 2m 28s shorter.
Waning Crescent, 14% of the Moon is Illuminated
Today
Waning Crescent
Sep 24
New
Oct 1
First Quarter
Oct 8
Full
Oct 15
Last Quarter

Today's Extremes

State Highs State Lows

Community

WunderPhotos

Upload Photos

1,754,792 photos uploaded!

WunderBlogs® & News

Nearby

Snow Depth

Station Depth Elevation
No new snow has been reported.

Earthquake Activity

City Distance Mag. Time & Date
No recent earthquake activity has been reported nearby.
Minimum magnitude displayed is 2.5.

Coastal Water Temperatures

Place Temperature
Washington, DC 73.9 °F
Lewisetta, VA 73.0 °F
Solomons Island, MD 75.0 °F

Nearby Weather Stations